Terminal Aerodrome Forecast
Issued by NWS

Home | Current Version | Previous Version | Text Only | Print | Product List | Glossary On
Versions: 1 2 3 4 5 6 7 8 9 10 11 12 13 14 15 16 17 18 19 20
000
FTUS44 KLZK 041700
TAFLLQ
TAF
KLLQ 041739Z 0418/0518 22009G18KT P6SM -RA SCT008 OVC015
     FM042000 01010G18KT P6SM -RA VCTS SCT008CB OVC015
      TEMPO 0422/0502 3SM -RA BR BKN008 OVC015
     FM050200 02010G18KT 5SM -RA BR OVC012
      TEMPO 0502/0505 4SM -FZRAPL OVC008
     FM050500 02010G20KT 5SM -FZRAPL BR OVC008
     FM050700 02012G20KT 4SM -PLSN BR OVC005
     FM050900 02018G24KT 3SM -SN BR OVC005=

USA.gov is the U.S. government's official web portal to all federal, state and local government web resources and services.